This is the latest recevied weather packets stored in our database for station/object IU7LMH-13. If no packets are shown the sender has not sent any weather packets the latest 10 day(s).
| Time | Temp. | Humidity | Pressure | Rain* | Wind** | Luminosity | Snow |
|---|---|---|---|---|---|---|---|
| 1777629397 | 17.78° C | 42% | 1020.1 hPa | 0 mm | - | - | - |
| 1777627958 | 18.33° C | 42% | 1020.1 hPa | 0 mm | - | - | - |
| 1777627477 | 17.78° C | 43% | 1020.3 hPa | 0 mm | - | - | - |
| 1777627117 | 17.78° C | 44% | 1020.2 hPa | 0 mm | - | - | - |
| 1777626996 | 17.78° C | 44% | 1020.7 hPa | 0 mm | - | - | - |
| 1777625198 | 16.11° C | 49% | 1020.3 hPa | 0 mm | - | - | - |
| 1777624118 | 16.11° C | 52% | 1020.4 hPa | 0 mm | - | - | - |
| 1777623757 | 16.11° C | 52% | 1020.3 hPa | 0 mm | - | - | - |
| 1777623517 | 16.67° C | 50% | 1020.5 hPa | 0 mm | - | - | - |
| 1777623157 | 16.11° C | 52% | 1020.3 hPa | 0 mm | - | - | - |
| 1777622918 | 16.11° C | 51% | 1020.3 hPa | 0 mm | - | - | - |
| 1777621597 | 16.11° C | 51% | 1020.1 hPa | 0 mm | - | - | - |
| 1777620878 | 15.56° C | 53% | 1020.2 hPa | 0 mm | - | - | - |
| 1777620645 | 16.67° C | 53% | 1020 hPa | 0 mm | - | - | - |
| 1777619917 | 16.67° C | 55% | 1020 hPa | 0 mm | - | - | - |
| 1777619677 | 16.11° C | 57% | 1020 hPa | 0 mm | - | - | - |
| 1777618597 | 15.56° C | 58% | 1019.9 hPa | 0 mm | - | - | - |
| 1777617878 | 15° C | 62% | 1020.1 hPa | 0 mm | - | - | - |
| 1777617757 | 15° C | 63% | 1020.1 hPa | 0 mm | - | - | - |
| 1777615844 | 13.33° C | 73% | 1019.7 hPa | 0 mm | - | - | - |
| 1777615117 | 12.78° C | 75% | 1019.6 hPa | 0 mm | - | - | - |
| 1777614639 | 12.22° C | 75% | 1019.7 hPa | 0 mm | - | - | - |
| 1777614157 | 12.22° C | 76% | 1019.7 hPa | 0 mm | - | - | - |
| 1777613917 | 12.22° C | 76% | 1019.9 hPa | 0 mm | - | - | - |
| 1777613797 | 12.22° C | 76% | 1019.7 hPa | 0 mm | - | - | - |
* Rain latest hour (hover to see other rain measurements)
** Current wind speed in m/s (hover to see current wind gust speed)